Weather at Kake Airport

Public forecast

Using degrees Fahrenheit for public forecast. Weather courtesy of forecast.io.

Current aviation weather report (METAR) for Kake Airport

Retrieved 2020/10/01 20:56 UTC (15 minutes ago):

PAFE 012056Z AUTO 00000KT M1/4SM FG OVC002 09/09 A3028 RMK AO2 SLP267 T00940089 58010

Closest aviation forecast (TAF) to Kake Airport

Closest forecast is Petersburg James A Johnson Airport, 33.1 nm (61.3 km) ESE. Retrieved 2020/10/01 18:24 UTC (3 hours ago):

TAF PAPG 011722Z 0118/0218 VRB02KT 1SM BCFG SCT002 BKN007 OVC025 TEMPO 0118/0120 1/2SM FG VV003 FM012000 09003KT P6SM FEW004 SCT250 FM021500 03004KT 5SM -RA BR BKN025 OVC040 AMD LTD TO CLD VIS AND WIND 0206/0215